createdAt,value
2023-02-13T00:01:40.727Z,82.84
2023-02-13T00:05:32.957Z,83.34
2023-02-13T00:09:25.574Z,84.03
2023-02-13T00:13:18.172Z,83.77
2023-02-13T00:17:10.632Z,84.10
2023-02-13T00:21:04.876Z,83.81
2023-02-13T00:24:57.597Z,83.73
2023-02-13T00:28:50.074Z,83.95
2023-02-13T00:32:42.496Z,84.03
2023-02-13T00:36:35.283Z,83.68
2023-02-13T00:40:28.195Z,83.15
2023-02-13T00:44:20.614Z,83.16
2023-02-13T00:48:12.910Z,83.17
2023-02-13T00:52:05.362Z,82.60
2023-02-13T00:55:57.729Z,83.14
2023-02-13T00:59:51.052Z,83.04
2023-02-13T01:03:44.023Z,83.50
2023-02-13T01:07:36.807Z,82.12
2023-02-13T01:11:29.443Z,82.78
2023-02-13T01:15:23.210Z,83.18
2023-02-13T01:19:16.221Z,83.17
2023-02-13T01:23:08.668Z,83.14
2023-02-13T01:27:02.752Z,82.20
2023-02-13T01:30:57.383Z,82.46
2023-02-13T01:34:50.227Z,82.15
2023-02-13T01:38:42.717Z,81.66
2023-02-13T01:42:35.805Z,81.45
2023-02-13T01:46:28.243Z,81.46
2023-02-13T01:50:29.556Z,81.88
2023-02-13T01:54:27.564Z,82.91
2023-02-13T01:58:22.792Z,82.28
2023-02-13T02:02:16.153Z,81.50
2023-02-13T02:06:11.829Z,81.63
2023-02-13T02:10:14.397Z,81.69
2023-02-13T02:14:07.331Z,81.84
2023-02-13T02:17:59.887Z,81.69
2023-02-13T02:21:58.615Z,81.61
2023-02-13T02:25:54.100Z,81.51
2023-02-13T02:29:52.635Z,81.09
2023-02-13T02:33:54.572Z,80.94
2023-02-13T02:38:01.445Z,81.00
2023-02-13T02:42:09.476Z,81.33
2023-02-13T02:46:22.152Z,81.13
2023-02-13T02:50:20.506Z,80.63
2023-02-13T02:54:37.892Z,81.52
2023-02-13T02:59:02.824Z,82.16
2023-02-13T03:03:13.530Z,81.63
2023-02-13T03:07:08.532Z,82.05
2023-02-13T03:11:19.605Z,81.88
2023-02-13T03:19:42.996Z,81.50
2023-02-13T03:23:47.261Z,82.87
2023-02-13T03:28:18.450Z,82.59
2023-02-13T03:32:18.989Z,82.90
2023-02-13T03:36:45.341Z,83.07
2023-02-13T03:41:02.661Z,83.50
2023-02-13T03:45:15.517Z,83.27
2023-02-13T03:49:30.589Z,82.41
2023-02-13T03:53:23.535Z,81.84
2023-02-13T03:57:35.736Z,83.05
2023-02-13T04:01:30.448Z,83.69
2023-02-13T04:05:25.948Z,82.45
2023-02-13T04:09:18.578Z,82.61
2023-02-13T04:13:23.525Z,83.58
2023-02-13T04:17:36.181Z,83.85
2023-02-13T04:21:32.302Z,83.85
2023-02-13T04:25:24.934Z,84.26
2023-02-13T04:29:17.298Z,84.41
2023-02-13T04:33:10.030Z,84.33
2023-02-13T04:37:02.489Z,84.02
2023-02-13T04:40:54.835Z,83.69
2023-02-13T04:44:47.315Z,83.48
2023-02-13T04:48:39.785Z,84.68
2023-02-13T04:52:32.402Z,85.46
2023-02-13T04:56:24.928Z,85.36
2023-02-13T05:00:17.542Z,85.03
2023-02-13T05:04:11.637Z,84.60
2023-02-13T05:08:04.581Z,84.86
2023-02-13T05:11:57.763Z,85.12
2023-02-13T05:15:50.517Z,85.29
2023-02-13T05:19:43.163Z,85.54
2023-02-13T05:23:35.661Z,85.85
2023-02-13T05:27:27.962Z,85.63
2023-02-13T05:31:20.594Z,85.33
2023-02-13T05:35:13.037Z,84.78
2023-02-13T05:39:05.651Z,84.79
2023-02-13T05:42:58.069Z,85.27
2023-02-13T05:46:50.646Z,84.95
2023-02-13T05:50:43.105Z,84.70
2023-02-13T05:54:35.549Z,84.71
2023-02-13T05:58:28.162Z,85.26
2023-02-13T06:02:21.010Z,84.81
2023-02-13T06:06:13.486Z,84.88
2023-02-13T06:10:06.451Z,84.92
2023-02-13T06:13:58.957Z,84.19
2023-02-13T06:17:51.278Z,84.67
2023-02-13T06:21:43.747Z,84.49
2023-02-13T06:25:36.633Z,85.07
2023-02-13T06:29:29.152Z,85.27
2023-02-13T06:33:21.857Z,85.38
2023-02-13T06:37:14.306Z,85.49
2023-02-13T06:41:07.181Z,85.30
2023-02-13T06:44:59.610Z,85.15
2023-02-13T06:48:52.126Z,85.30
2023-02-13T06:52:48.285Z,85.65
2023-02-13T06:56:40.772Z,85.18
2023-02-13T07:00:33.654Z,85.00
2023-02-13T07:04:25.935Z,84.96
2023-02-13T07:08:18.605Z,84.96
2023-02-13T07:12:12.341Z,84.47
2023-02-13T07:16:05.048Z,84.15
2023-02-13T07:19:57.543Z,84.23
2023-02-13T07:23:50.178Z,83.84
2023-02-13T07:27:42.530Z,83.89
2023-02-13T07:31:35.614Z,83.31
2023-02-13T07:35:28.402Z,82.84
2023-02-13T07:39:25.271Z,81.78
2023-02-13T07:43:20.295Z,80.76
2023-02-13T07:47:12.603Z,80.81
2023-02-13T07:51:05.776Z,80.67
2023-02-13T07:54:58.284Z,80.19
2023-02-13T07:58:50.852Z,79.84
2023-02-13T08:02:43.649Z,79.33
2023-02-13T08:06:36.032Z,78.90
2023-02-13T08:10:47.358Z,78.87
2023-02-13T08:14:39.571Z,78.19
2023-02-13T08:18:32.319Z,77.28
2023-02-13T08:22:25.016Z,77.37
2023-02-13T08:26:17.612Z,76.69
2023-02-13T08:30:10.450Z,76.42
2023-02-13T08:34:03.168Z,75.65
2023-02-13T08:37:56.174Z,74.47
2023-02-13T08:41:48.696Z,74.04
2023-02-13T08:45:41.299Z,73.91
2023-02-13T08:49:33.933Z,72.91
2023-02-13T08:53:26.496Z,72.10
2023-02-13T08:57:19.110Z,72.05
2023-02-13T09:01:11.439Z,72.24
2023-02-13T09:05:04.134Z,71.28
2023-02-13T09:08:56.441Z,71.04
2023-02-13T09:12:55.115Z,69.95
2023-02-13T09:16:47.731Z,70.33
2023-02-13T09:20:40.242Z,69.89
2023-02-13T09:24:32.571Z,69.80
2023-02-13T09:28:25.181Z,69.59
2023-02-13T09:32:18.279Z,70.06
2023-02-13T09:36:14.074Z,70.12
2023-02-13T09:40:07.557Z,71.20
2023-02-13T09:44:12.329Z,71.24
2023-02-13T09:48:05.751Z,71.45
2023-02-13T09:51:58.766Z,71.63
2023-02-13T09:56:35.115Z,71.60
2023-02-13T10:00:36.416Z,71.64
2023-02-13T10:04:44.167Z,71.76
2023-02-13T10:08:43.072Z,71.86
2023-02-13T10:12:43.593Z,71.73
2023-02-13T10:16:38.836Z,71.42
2023-02-13T10:20:34.827Z,71.27
2023-02-13T10:24:39.676Z,71.18
2023-02-13T10:28:39.133Z,71.35
2023-02-13T10:32:50.649Z,71.55
2023-02-13T10:36:47.288Z,71.02
2023-02-13T10:40:42.297Z,71.12
2023-02-13T10:44:54.897Z,71.15
2023-02-13T10:48:53.712Z,70.84
2023-02-13T10:52:55.260Z,71.62
2023-02-13T10:56:54.764Z,71.45
2023-02-13T11:00:59.243Z,71.93
2023-02-13T11:04:53.601Z,71.63
2023-02-13T11:08:47.473Z,71.54
2023-02-13T11:12:40.102Z,71.29
2023-02-13T11:16:38.941Z,71.72
2023-02-13T11:20:35.663Z,71.10
2023-02-13T11:24:28.422Z,71.81
2023-02-13T11:28:21.649Z,72.15
2023-02-13T11:32:14.504Z,72.46
2023-02-13T11:36:14.416Z,72.30
2023-02-13T11:40:29.283Z,72.86
2023-02-13T11:44:24.720Z,72.72
2023-02-13T11:48:22.233Z,73.49
2023-02-13T11:52:26.325Z,73.95
2023-02-13T11:56:18.902Z,74.02
2023-02-13T12:00:30.991Z,74.19
2023-02-13T12:04:23.590Z,74.26
2023-02-13T12:08:16.126Z,73.82
2023-02-13T12:12:12.348Z,73.92
2023-02-13T12:16:25.157Z,74.11
2023-02-13T12:20:18.291Z,73.53
2023-02-13T12:24:16.470Z,73.77
2023-02-13T12:28:28.649Z,73.16
2023-02-13T12:32:29.351Z,71.96
2023-02-13T12:36:36.245Z,72.19
2023-02-13T12:40:35.028Z,72.16
2023-02-13T12:44:37.202Z,72.26
2023-02-13T12:48:35.798Z,72.01
2023-02-13T12:52:47.525Z,72.05
2023-02-13T12:57:00.512Z,71.48
2023-02-13T13:01:14.677Z,71.83
2023-02-13T13:05:27.606Z,71.51
2023-02-13T13:09:46.982Z,72.25
2023-02-13T13:13:47.389Z,72.56
2023-02-13T13:17:55.388Z,72.17
2023-02-13T13:22:10.225Z,72.59
2023-02-13T13:26:10.335Z,72.66
2023-02-13T13:30:05.269Z,72.76
2023-02-13T13:34:01.036Z,72.43
2023-02-13T13:38:02.905Z,72.42
2023-02-13T13:42:09.963Z,71.81
2023-02-13T13:46:04.087Z,72.01
2023-02-13T13:49:57.553Z,72.03
2023-02-13T13:54:05.318Z,72.43
2023-02-13T13:57:57.932Z,72.25
2023-02-13T14:02:10.443Z,71.61
2023-02-13T14:06:05.338Z,71.73
2023-02-13T14:09:57.917Z,71.19
2023-02-13T14:13:50.588Z,71.43
2023-02-13T14:17:45.877Z,70.97
2023-02-13T14:21:38.380Z,71.49
2023-02-13T14:25:32.510Z,70.47
2023-02-13T14:29:34.433Z,69.71
2023-02-13T14:33:29.352Z,70.71
2023-02-13T14:37:30.468Z,70.76
2023-02-13T14:41:46.690Z,70.19
2023-02-13T14:45:46.682Z,70.76
2023-02-13T14:49:41.389Z,71.07
2023-02-13T14:53:40.614Z,71.55
2023-02-13T14:57:53.270Z,72.17
2023-02-13T15:01:48.841Z,72.76
2023-02-13T15:05:49.837Z,72.79
2023-02-13T15:09:47.067Z,72.88
2023-02-13T15:13:41.058Z,72.88
2023-02-13T15:17:38.872Z,72.63
2023-02-13T15:21:34.326Z,72.38
2023-02-13T15:25:27.197Z,72.51
2023-02-13T15:29:29.163Z,72.60
2023-02-13T15:33:23.960Z,72.57
2023-02-13T15:37:24.209Z,72.64
2023-02-13T15:41:19.524Z,72.69
2023-02-13T15:45:17.530Z,72.97
2023-02-13T15:49:15.921Z,72.85
2023-02-13T15:53:13.864Z,73.00
2023-02-13T15:57:08.129Z,73.25
2023-02-13T16:01:03.252Z,73.16
2023-02-13T16:04:56.615Z,73.40
2023-02-13T16:08:57.971Z,73.50
2023-02-13T16:12:50.819Z,73.82
2023-02-13T16:16:44.198Z,74.05
2023-02-13T16:20:39.076Z,74.12
2023-02-13T16:24:32.289Z,74.27
2023-02-13T16:28:27.255Z,74.68
2023-02-13T16:32:25.603Z,74.65
2023-02-13T16:36:20.105Z,74.78
2023-02-13T16:40:29.144Z,74.66
2023-02-13T16:44:33.770Z,74.70
2023-02-13T16:48:26.751Z,75.22
2023-02-13T16:52:26.207Z,75.33
2023-02-13T16:56:19.463Z,75.44
2023-02-13T17:00:13.755Z,75.62
2023-02-13T17:04:20.660Z,75.94
2023-02-13T17:08:14.954Z,76.24
2023-02-13T17:12:17.811Z,76.63
2023-02-13T17:16:11.294Z,77.14
2023-02-13T17:20:06.208Z,77.58
2023-02-13T17:24:02.785Z,77.58
2023-02-13T17:28:05.123Z,77.90
2023-02-13T17:31:58.939Z,78.39
2023-02-13T17:35:54.441Z,78.78
2023-02-13T17:39:50.051Z,79.09
2023-02-13T17:43:45.396Z,79.72
2023-02-13T17:47:38.951Z,79.95
2023-02-13T17:51:33.506Z,80.51
2023-02-13T17:55:28.560Z,80.44
2023-02-13T17:59:24.000Z,80.66
2023-02-13T18:03:19.321Z,81.24
2023-02-13T18:07:14.892Z,81.40
2023-02-13T18:11:14.116Z,82.14
2023-02-13T18:15:08.623Z,81.93
2023-02-13T18:19:03.893Z,82.05
2023-02-13T18:22:58.492Z,81.92
2023-02-13T18:26:53.615Z,81.98
2023-02-13T18:30:49.124Z,81.74
2023-02-13T18:34:42.778Z,81.75
2023-02-13T18:38:36.628Z,81.52
2023-02-13T18:42:31.642Z,81.58
2023-02-13T18:46:25.990Z,81.51
2023-02-13T18:50:19.953Z,81.56
2023-02-13T18:54:14.184Z,81.51
2023-02-13T18:58:07.602Z,81.63
2023-02-13T19:02:03.193Z,81.00
2023-02-13T19:05:58.044Z,81.16
2023-02-13T19:09:52.270Z,81.44
2023-02-13T19:13:46.353Z,81.49
2023-02-13T19:17:40.171Z,81.49
2023-02-13T19:21:38.955Z,81.83
2023-02-13T19:25:36.851Z,81.59
2023-02-13T19:29:33.872Z,81.98
2023-02-13T19:33:31.649Z,82.33
2023-02-13T19:37:30.708Z,82.32
2023-02-13T19:41:32.116Z,82.20
2023-02-13T19:45:27.481Z,82.69
2023-02-13T19:49:23.418Z,82.94
2023-02-13T19:53:17.662Z,82.99
2023-02-13T19:57:11.512Z,83.14
2023-02-13T20:01:15.851Z,82.77
2023-02-13T20:05:09.920Z,82.83
2023-02-13T20:09:12.825Z,83.02
2023-02-13T20:13:07.477Z,83.60
2023-02-13T20:17:01.382Z,83.82
2023-02-13T20:20:55.000Z,83.95
2023-02-13T20:24:49.446Z,83.76
2023-02-13T20:28:46.243Z,83.57
2023-02-13T20:32:42.488Z,83.74
2023-02-13T20:36:37.240Z,83.64
2023-02-13T20:40:34.100Z,83.74
2023-02-13T20:44:28.956Z,83.52
2023-02-13T20:48:22.492Z,83.49
2023-02-13T20:52:16.674Z,83.67
2023-02-13T20:56:14.076Z,83.67
2023-02-13T21:00:09.817Z,83.42
2023-02-13T21:04:03.676Z,83.35
2023-02-13T21:07:57.676Z,83.72
2023-02-13T21:11:51.333Z,83.15
2023-02-13T21:15:48.835Z,83.11
2023-02-13T21:19:43.308Z,83.40
2023-02-13T21:23:36.937Z,83.33
2023-02-13T21:27:29.761Z,83.28
2023-02-13T21:31:28.170Z,83.12
2023-02-13T21:35:21.480Z,82.95
2023-02-13T21:39:16.160Z,83.12
2023-02-13T21:43:09.396Z,82.83
2023-02-13T21:47:02.286Z,83.00
2023-02-13T21:50:55.463Z,82.45
2023-02-13T21:54:48.287Z,82.61
2023-02-13T21:58:42.473Z,82.88
2023-02-13T22:02:34.941Z,82.34
2023-02-13T22:06:28.084Z,82.39
2023-02-13T22:10:20.554Z,82.42
2023-02-13T22:14:17.523Z,82.43
2023-02-13T22:18:09.793Z,82.73
2023-02-13T22:22:02.446Z,82.65
2023-02-13T22:25:55.026Z,82.98
2023-02-13T22:29:47.557Z,83.27
2023-02-13T22:33:40.650Z,83.67
2023-02-13T22:37:33.175Z,83.95
2023-02-13T22:41:26.408Z,84.09
2023-02-13T22:45:18.909Z,84.33
2023-02-13T22:49:11.637Z,84.27
2023-02-13T22:53:05.009Z,84.58
2023-02-13T22:56:57.383Z,84.48
2023-02-13T23:00:50.056Z,84.40
2023-02-13T23:04:42.974Z,84.06
2023-02-13T23:08:35.834Z,84.41
2023-02-13T23:12:39.043Z,84.64
2023-02-13T23:16:51.900Z,84.13
2023-02-13T23:20:44.812Z,83.85
2023-02-13T23:24:37.077Z,84.16
2023-02-13T23:28:29.659Z,84.17
2023-02-13T23:32:22.625Z,84.52
2023-02-13T23:36:15.925Z,84.66
2023-02-13T23:40:08.847Z,84.63
2023-02-13T23:44:01.593Z,85.11
2023-02-13T23:47:53.903Z,85.33
2023-02-13T23:51:46.995Z,85.28
2023-02-13T23:55:39.417Z,85.28
2023-02-13T23:59:31.981Z,85.30
